Disclaimer

Please do not use the information listed here in-flight or in-navigation, as they are not provided to us by the airports but are provided by volunteers, so they might be outdated.

Search


Regions


Airport information page

Radio informations:
Tower (TWR) - 122.1 MHz
Director (DIR) - 123.3 MHz
Approach (APP) - 123.3 MHz

Airport informations:
Latitude: 52° 07' 38.22" N
Longitude: 000° 57' 22.55" E
Elevation: 284 feet - 87 meters
Operating hours: Remarks
Operating agency: Military
Timezone: UTC 0(+1DT) - Last Sunday in March to last Sunday in October
Fuel: N/A

Runway information:
05/23 - 7953 x 151 feet< - >2424 x 46 meters

Recent METARs:
EGUW 181650Z 17013KT CAVOK 08/04 Q1005 BLU
EGUW 181650Z 17013KT CAVOK 08/04 Q1005 BLU
EGUW 181650Z 17013KT CAVOK 08/04 Q1005 BLU

Airport on the map: